createdAt,value
2023-03-20T00:00:39.048Z,1.74
2023-03-20T00:03:25.953Z,1.73
2023-03-20T00:06:12.854Z,1.75
2023-03-20T00:08:59.760Z,1.75
2023-03-20T00:11:56.788Z,1.77
2023-03-20T00:14:44.054Z,1.77
2023-03-20T00:17:40.215Z,1.78
2023-03-20T00:20:34.625Z,1.78
2023-03-20T00:23:21.696Z,1.79
2023-03-20T00:26:08.642Z,1.80
2023-03-20T00:29:02.313Z,1.80
2023-03-20T00:31:55.488Z,1.79
2023-03-20T00:34:45.870Z,1.80
2023-03-20T00:37:33.328Z,1.80
2023-03-20T00:40:20.420Z,1.80
2023-03-20T00:43:11.482Z,1.78
2023-03-20T00:45:58.963Z,1.80
2023-03-20T00:48:45.988Z,1.81
2023-03-20T00:51:33.244Z,1.82
2023-03-20T00:54:20.125Z,1.82
2023-03-20T00:57:13.979Z,1.80
2023-03-20T01:00:07.295Z,1.82
2023-03-20T01:02:54.434Z,1.78
2023-03-20T01:05:45.821Z,1.78
2023-03-20T01:08:44.311Z,1.80
2023-03-20T01:11:33.280Z,1.81
2023-03-20T01:14:20.283Z,1.81
2023-03-20T01:17:07.245Z,1.80
2023-03-20T01:19:54.391Z,1.76
2023-03-20T01:22:41.352Z,1.77
2023-03-20T01:25:28.912Z,1.79
2023-03-20T01:28:16.323Z,1.54
2023-03-20T01:31:03.388Z,1.76
2023-03-20T01:33:51.870Z,1.79
2023-03-20T01:36:42.566Z,1.78
2023-03-20T01:39:30.266Z,1.78
2023-03-20T01:42:18.680Z,1.69
2023-03-20T01:45:05.675Z,1.74
2023-03-20T01:47:52.995Z,1.77
2023-03-20T01:50:45.886Z,1.77
2023-03-20T01:53:43.309Z,1.76
2023-03-20T01:56:32.755Z,1.76
2023-03-20T01:59:07.146Z,1.73
2023-03-20T02:01:36.630Z,1.76
2023-03-20T02:04:04.306Z,1.77
2023-03-20T02:06:46.526Z,1.77
2023-03-20T02:09:21.034Z,1.69
2023-03-20T02:11:50.003Z,1.60
2023-03-20T02:14:20.684Z,1.76
2023-03-20T02:16:59.300Z,1.75
2023-03-20T02:19:42.582Z,1.75
2023-03-20T02:22:12.601Z,1.75
2023-03-20T02:25:05.763Z,1.74
2023-03-20T02:28:02.125Z,1.67
2023-03-20T02:30:48.419Z,1.74
2023-03-20T02:33:41.036Z,1.73
2023-03-20T02:36:45.063Z,1.73
2023-03-20T02:39:16.291Z,1.73
2023-03-20T02:42:08.959Z,1.71
2023-03-20T02:44:54.386Z,1.71
2023-03-20T02:47:33.996Z,1.70
2023-03-20T02:50:30.400Z,1.70
2023-03-20T02:53:12.897Z,1.69
2023-03-20T02:55:48.229Z,1.68
2023-03-20T02:58:28.480Z,1.69
2023-03-20T03:01:01.739Z,1.68
2023-03-20T03:03:57.959Z,1.66
2023-03-20T03:06:32.666Z,1.56
2023-03-20T03:09:18.887Z,1.67
2023-03-20T03:11:51.995Z,1.44
2023-03-20T03:14:41.585Z,1.65
2023-03-20T03:17:14.858Z,1.65
2023-03-20T03:19:48.465Z,1.63
2023-03-20T03:22:16.837Z,1.63
2023-03-20T03:24:47.112Z,1.54
2023-03-20T03:27:26.849Z,1.62
2023-03-20T03:30:18.862Z,1.61
2023-03-20T03:32:54.434Z,1.59
2023-03-20T03:35:23.624Z,1.56
2023-03-20T03:38:04.136Z,1.58
2023-03-20T03:40:39.732Z,1.57
2023-03-20T03:43:18.934Z,1.56
2023-03-20T03:46:02.701Z,1.56
2023-03-20T03:48:39.291Z,1.54
2023-03-20T03:51:11.685Z,1.24
2023-03-20T03:53:56.145Z,1.51
2023-03-20T03:56:26.604Z,1.50
2023-03-20T03:58:57.933Z,1.16
2023-03-20T04:01:27.494Z,1.48
2023-03-20T04:04:01.154Z,1.31
2023-03-20T04:06:28.743Z,1.45
2023-03-20T04:08:55.984Z,1.45
2023-03-20T04:11:25.383Z,1.45
2023-03-20T04:13:53.220Z,1.45
2023-03-20T04:16:23.046Z,1.12
2023-03-20T04:18:51.121Z,1.43
2023-03-20T04:21:18.863Z,1.41
2023-03-20T04:23:46.205Z,1.44
2023-03-20T04:26:14.573Z,1.02
2023-03-20T04:28:41.573Z,1.41
2023-03-20T04:31:21.261Z,1.42
2023-03-20T04:34:03.558Z,1.40
2023-03-20T04:36:36.879Z,1.35
2023-03-20T04:39:06.848Z,1.39
2023-03-20T04:41:34.236Z,1.33
2023-03-20T04:44:01.283Z,1.37
2023-03-20T04:46:28.745Z,1.37
2023-03-20T04:48:55.943Z,1.35
2023-03-20T04:51:26.742Z,1.03
2023-03-20T04:53:54.076Z,1.36
2023-03-20T04:56:20.998Z,1.37
2023-03-20T04:58:49.829Z,1.35
2023-03-20T05:01:19.117Z,1.35
2023-03-20T05:03:46.734Z,1.34
2023-03-20T05:06:13.934Z,1.35
2023-03-20T05:08:43.304Z,1.23
2023-03-20T05:11:10.944Z,1.33
2023-03-20T05:13:56.600Z,1.21
2023-03-20T05:16:42.066Z,1.30
2023-03-20T05:19:18.260Z,1.03
2023-03-20T05:22:11.340Z,1.31
2023-03-20T05:24:41.443Z,1.31
2023-03-20T05:27:26.894Z,1.31
2023-03-20T05:30:17.349Z,1.32
2023-03-20T05:33:16.909Z,1.31
2023-03-20T05:36:08.034Z,1.32
2023-03-20T05:38:55.508Z,1.31
2023-03-20T05:41:41.048Z,1.27
2023-03-20T05:44:26.749Z,1.30
2023-03-20T05:47:25.920Z,1.30
2023-03-20T05:50:04.779Z,1.29
2023-03-20T05:52:50.640Z,1.27
2023-03-20T05:55:36.557Z,1.29
2023-03-20T05:58:14.841Z,1.28
2023-03-20T06:01:00.217Z,1.29
2023-03-20T06:03:48.741Z,1.21
2023-03-20T06:06:23.916Z,1.27
2023-03-20T06:08:52.189Z,1.27
2023-03-20T06:11:19.102Z,1.27
2023-03-20T06:13:46.124Z,1.28
2023-03-20T06:16:13.254Z,1.29
2023-03-20T06:18:40.317Z,1.29
2023-03-20T06:21:09.553Z,1.30
2023-03-20T06:23:37.002Z,1.31
2023-03-20T06:26:05.237Z,1.32
2023-03-20T06:28:43.894Z,1.32
2023-03-20T06:31:10.821Z,1.35
2023-03-20T06:33:38.174Z,1.33
2023-03-20T06:36:05.806Z,1.37
2023-03-20T06:38:33.512Z,1.37
2023-03-20T06:41:07.083Z,1.38
2023-03-20T06:43:34.910Z,1.40
2023-03-20T06:46:01.848Z,1.27
2023-03-20T06:48:31.383Z,1.43
2023-03-20T06:50:59.031Z,1.40
2023-03-20T06:53:35.651Z,1.45
2023-03-20T06:56:15.286Z,1.44
2023-03-20T06:58:42.362Z,1.48
2023-03-20T07:01:15.804Z,1.50
2023-03-20T07:03:43.608Z,1.53
2023-03-20T07:06:11.666Z,1.56
2023-03-20T07:08:40.326Z,1.58
2023-03-20T07:11:07.846Z,1.55
2023-03-20T07:13:35.020Z,1.59
2023-03-20T07:16:11.891Z,1.66
2023-03-20T07:18:41.090Z,1.69
2023-03-20T07:21:08.974Z,1.57
2023-03-20T07:23:36.561Z,1.73
2023-03-20T07:26:04.211Z,1.77
2023-03-20T07:28:31.620Z,1.78
2023-03-20T07:31:24.300Z,1.75
2023-03-20T07:33:59.681Z,1.55
2023-03-20T07:36:27.093Z,1.74
2023-03-20T07:38:54.079Z,1.90
2023-03-20T07:41:21.147Z,1.86
2023-03-20T07:43:59.033Z,1.89
2023-03-20T07:46:49.269Z,1.85
2023-03-20T07:49:24.029Z,1.96
2023-03-20T07:51:51.363Z,1.98
2023-03-20T07:54:18.587Z,2.00
2023-03-20T07:56:45.772Z,1.89
2023-03-20T07:59:13.626Z,2.03
2023-03-20T08:01:40.882Z,1.96
2023-03-20T08:04:08.210Z,2.03
2023-03-20T08:06:35.482Z,2.04
2023-03-20T08:09:03.653Z,2.11
2023-03-20T08:11:32.612Z,2.11
2023-03-20T08:14:01.159Z,2.15
2023-03-20T08:16:28.166Z,2.18
2023-03-20T08:19:01.293Z,2.21
2023-03-20T08:21:29.729Z,2.23
2023-03-20T08:23:56.873Z,2.25
2023-03-20T08:26:25.596Z,2.28
2023-03-20T08:28:52.815Z,2.32
2023-03-20T08:31:20.328Z,2.34
2023-03-20T08:33:47.941Z,2.37
2023-03-20T08:36:16.082Z,2.17
2023-03-20T08:38:43.507Z,2.30
2023-03-20T08:41:11.022Z,2.26
2023-03-20T08:43:38.100Z,2.34
2023-03-20T08:46:05.503Z,2.54
2023-03-20T08:48:32.717Z,2.57
2023-03-20T08:50:59.917Z,2.49
2023-03-20T08:53:27.613Z,2.63
2023-03-20T08:55:54.715Z,2.67
2023-03-20T08:58:21.899Z,2.63
2023-03-20T09:00:49.285Z,2.73
2023-03-20T09:03:19.266Z,2.77
2023-03-20T09:05:48.126Z,2.79
2023-03-20T09:08:15.309Z,2.84
2023-03-20T09:10:42.303Z,2.87
2023-03-20T09:13:25.688Z,2.91
2023-03-20T09:15:53.821Z,2.95
2023-03-20T09:18:21.451Z,2.97
2023-03-20T09:20:49.115Z,3.01
2023-03-20T09:23:16.635Z,3.04
2023-03-20T09:25:43.546Z,3.05
2023-03-20T09:28:10.641Z,3.11
2023-03-20T09:30:38.684Z,3.16
2023-03-20T09:33:05.970Z,3.21
2023-03-20T09:35:33.041Z,3.26
2023-03-20T09:38:00.238Z,3.27
2023-03-20T09:40:49.982Z,3.33
2023-03-20T09:43:43.190Z,3.40
2023-03-20T09:46:31.187Z,3.43
2023-03-20T09:49:07.805Z,3.46
2023-03-20T09:51:38.385Z,3.52
2023-03-20T09:54:13.892Z,3.55
2023-03-20T09:56:41.150Z,3.61
2023-03-20T09:59:08.669Z,3.64
2023-03-20T10:01:48.511Z,3.68
2023-03-20T10:04:15.670Z,3.73
2023-03-20T10:06:42.848Z,3.45
2023-03-20T10:09:21.145Z,3.69
2023-03-20T10:12:18.245Z,3.92
2023-03-20T10:15:06.716Z,3.99
2023-03-20T10:18:11.090Z,4.06
2023-03-20T10:20:50.691Z,4.13
2023-03-20T10:23:47.095Z,4.19
2023-03-20T10:26:18.023Z,4.19
2023-03-20T10:28:48.568Z,4.28
2023-03-20T10:31:31.317Z,4.33
2023-03-20T10:34:17.201Z,4.36
2023-03-20T10:36:52.984Z,4.38
2023-03-20T10:39:50.669Z,4.43
2023-03-20T10:42:22.871Z,4.44
2023-03-20T10:45:01.617Z,4.56
2023-03-20T10:47:34.216Z,4.63
2023-03-20T10:50:24.407Z,4.69
2023-03-20T10:52:53.996Z,4.71
2023-03-20T10:55:26.441Z,4.85
2023-03-20T10:58:01.350Z,4.92
2023-03-20T11:00:28.633Z,4.98
2023-03-20T11:02:56.051Z,5.04
2023-03-20T11:05:34.881Z,5.06
2023-03-20T11:08:23.842Z,5.18
2023-03-20T11:10:59.527Z,5.24
2023-03-20T11:13:36.722Z,5.31
2023-03-20T11:16:30.178Z,5.37
2023-03-20T11:19:06.121Z,5.47
2023-03-20T11:21:35.874Z,5.39
2023-03-20T11:24:04.516Z,5.62
2023-03-20T11:26:38.365Z,5.71
2023-03-20T11:29:29.117Z,5.81
2023-03-20T11:32:06.618Z,5.95
2023-03-20T11:34:37.408Z,6.06
2023-03-20T11:37:18.504Z,6.01
2023-03-20T11:39:57.421Z,6.28
2023-03-20T11:42:27.208Z,6.44
2023-03-20T11:44:59.547Z,6.56
2023-03-20T11:47:28.858Z,6.67
2023-03-20T11:49:58.669Z,6.69
2023-03-20T11:52:31.298Z,6.83
2023-03-20T11:55:01.996Z,6.89
2023-03-20T11:57:36.227Z,6.98
2023-03-20T12:00:17.124Z,7.08
2023-03-20T12:02:45.060Z,7.18
2023-03-20T12:05:41.143Z,7.27
2023-03-20T12:08:15.085Z,7.35
2023-03-20T12:10:46.081Z,7.47
2023-03-20T12:13:22.210Z,7.57
2023-03-20T12:15:58.024Z,7.62
2023-03-20T12:18:43.818Z,7.71
2023-03-20T12:21:25.810Z,7.79
2023-03-20T12:24:04.638Z,7.79
2023-03-20T12:26:36.232Z,7.86
2023-03-20T12:29:11.237Z,7.92
2023-03-20T12:31:47.202Z,7.99
2023-03-20T12:34:22.241Z,8.08
2023-03-20T12:36:52.972Z,8.17
2023-03-20T12:39:31.972Z,8.24
2023-03-20T12:42:11.005Z,8.36
2023-03-20T12:44:47.171Z,8.43
2023-03-20T12:47:23.864Z,8.53
2023-03-20T12:50:03.319Z,8.62
2023-03-20T12:53:11.831Z,8.69
2023-03-20T12:56:11.373Z,8.78
2023-03-20T12:58:47.522Z,8.83
2023-03-20T13:01:20.934Z,8.89
2023-03-20T13:04:31.903Z,8.97
2023-03-20T13:07:26.160Z,8.93
2023-03-20T13:10:25.687Z,9.11
2023-03-20T13:13:40.394Z,9.17
2023-03-20T13:16:39.067Z,9.22
2023-03-20T13:19:55.678Z,9.23
2023-03-20T13:22:42.406Z,9.30
2023-03-20T13:25:32.248Z,9.34
2023-03-20T13:28:25.100Z,9.36
2023-03-20T13:31:24.763Z,9.34
2023-03-20T13:34:14.734Z,9.41
2023-03-20T13:37:27.771Z,9.40
2023-03-20T13:40:26.232Z,9.44
2023-03-20T13:43:34.962Z,9.41
2023-03-20T13:46:30.914Z,9.39
2023-03-20T13:49:36.285Z,9.38
2023-03-20T13:52:34.242Z,9.40
2023-03-20T13:55:47.258Z,9.36
2023-03-20T13:58:39.226Z,9.29
2023-03-20T14:01:23.411Z,9.20
2023-03-20T14:04:13.441Z,9.18
2023-03-20T14:07:00.505Z,9.13
2023-03-20T14:09:57.818Z,9.09
2023-03-20T14:12:47.332Z,9.05
2023-03-20T14:15:34.378Z,9.03
2023-03-20T14:18:35.589Z,8.78
2023-03-20T14:21:30.363Z,8.92
2023-03-20T14:24:22.669Z,8.89
2023-03-20T14:26:54.714Z,8.84
2023-03-20T14:29:30.679Z,8.79
2023-03-20T14:32:52.572Z,8.73
2023-03-20T14:35:48.218Z,8.67
2023-03-20T14:38:40.217Z,8.54
2023-03-20T14:41:45.285Z,8.56
2023-03-20T14:45:09.924Z,8.54
2023-03-20T14:48:02.738Z,8.51
2023-03-20T14:50:56.179Z,8.47
2023-03-20T14:53:47.190Z,8.43
2023-03-20T14:56:35.358Z,8.40
2023-03-20T14:59:30.950Z,8.38
2023-03-20T15:02:22.388Z,8.30
2023-03-20T15:05:09.430Z,8.29
2023-03-20T15:07:59.473Z,8.24
2023-03-20T15:10:46.500Z,8.02
2023-03-20T15:13:35.638Z,8.18
2023-03-20T15:16:30.900Z,8.10
2023-03-20T15:19:18.710Z,8.10
2023-03-20T15:22:07.166Z,8.06
2023-03-20T15:24:54.215Z,8.02
2023-03-20T15:27:41.521Z,7.98
2023-03-20T15:30:33.917Z,7.96
2023-03-20T15:33:20.949Z,7.91
2023-03-20T15:36:08.157Z,7.61
2023-03-20T15:38:56.528Z,7.79
2023-03-20T15:41:47.889Z,7.81
2023-03-20T15:44:34.642Z,7.75
2023-03-20T15:47:30.194Z,7.71
2023-03-20T15:50:19.734Z,7.49
2023-03-20T15:53:08.161Z,7.62
2023-03-20T15:55:59.638Z,7.55
2023-03-20T15:58:55.821Z,7.56
2023-03-20T16:01:45.538Z,7.54
2023-03-20T16:04:35.398Z,7.49
2023-03-20T16:07:22.362Z,7.46
2023-03-20T16:10:10.412Z,7.41
2023-03-20T16:12:57.342Z,7.24
2023-03-20T16:15:47.153Z,7.30
2023-03-20T16:18:37.934Z,7.25
2023-03-20T16:21:47.932Z,7.20
2023-03-20T16:24:46.902Z,7.09
2023-03-20T16:27:40.756Z,7.07
2023-03-20T16:30:59.804Z,7.00
2023-03-20T16:33:46.855Z,6.93
2023-03-20T16:36:41.558Z,6.88
2023-03-20T16:39:38.452Z,6.83
2023-03-20T16:42:28.510Z,6.78
2023-03-20T16:45:16.787Z,6.74
2023-03-20T16:48:03.755Z,6.69
2023-03-20T16:51:00.092Z,6.63
2023-03-20T16:53:57.558Z,6.59
2023-03-20T16:56:55.822Z,6.54
2023-03-20T16:59:44.819Z,6.50
2023-03-20T17:02:59.629Z,6.43
2023-03-20T17:06:01.281Z,6.39
2023-03-20T17:08:56.925Z,6.32
2023-03-20T17:11:51.438Z,6.26
2023-03-20T17:14:38.325Z,6.17
2023-03-20T17:17:33.248Z,6.10
2023-03-20T17:20:20.177Z,6.01
2023-03-20T17:23:07.476Z,5.91
2023-03-20T17:25:54.345Z,5.81
2023-03-20T17:28:48.015Z,5.71
2023-03-20T17:31:36.756Z,5.62
2023-03-20T17:34:23.997Z,5.53
2023-03-20T17:37:10.890Z,5.25
2023-03-20T17:39:58.036Z,5.33
2023-03-20T17:42:45.629Z,5.26
2023-03-20T17:45:34.609Z,5.18
2023-03-20T17:48:21.607Z,5.09
2023-03-20T17:51:12.516Z,5.01
2023-03-20T17:53:59.670Z,4.94
2023-03-20T17:56:47.815Z,4.85
2023-03-20T17:59:34.915Z,4.55
2023-03-20T18:02:21.879Z,4.67
2023-03-20T18:05:09.601Z,4.52
2023-03-20T18:07:56.767Z,4.18
2023-03-20T18:10:53.123Z,4.01
2023-03-20T18:13:42.016Z,4.31
2023-03-20T18:16:37.898Z,4.20
2023-03-20T18:19:24.884Z,4.15
2023-03-20T18:22:12.544Z,4.06
2023-03-20T18:24:59.564Z,3.97
2023-03-20T18:27:46.363Z,3.89
2023-03-20T18:30:39.496Z,3.77
2023-03-20T18:33:26.610Z,3.70
2023-03-20T18:36:14.378Z,3.58
2023-03-20T18:39:01.242Z,3.54
2023-03-20T18:41:48.200Z,3.45
2023-03-20T18:44:35.890Z,3.33
2023-03-20T18:47:22.805Z,3.30
2023-03-20T18:50:09.770Z,3.22
2023-03-20T18:52:56.610Z,3.13
2023-03-20T18:55:45.402Z,3.09
2023-03-20T18:58:44.148Z,3.00
2023-03-20T19:01:31.679Z,2.65
2023-03-20T19:04:18.818Z,2.86
2023-03-20T19:07:05.930Z,2.79
2023-03-20T19:09:52.845Z,2.73
2023-03-20T19:12:39.757Z,2.66
2023-03-20T19:15:27.148Z,2.59
2023-03-20T19:18:14.587Z,2.52
2023-03-20T19:21:07.188Z,2.44
2023-03-20T19:23:54.038Z,2.36
2023-03-20T19:26:41.462Z,2.29
2023-03-20T19:29:31.145Z,2.22
2023-03-20T19:32:18.099Z,2.09
2023-03-20T19:35:43.601Z,2.09
2023-03-20T19:38:11.935Z,2.04
2023-03-20T19:41:02.000Z,1.99
2023-03-20T19:43:53.422Z,1.84
2023-03-20T19:46:42.226Z,1.88
2023-03-20T19:49:36.310Z,1.82
2023-03-20T19:52:23.892Z,1.73
2023-03-20T19:55:10.794Z,1.70
2023-03-20T19:57:57.809Z,1.48
2023-03-20T20:01:00.589Z,1.60
2023-03-20T20:03:47.943Z,1.55
2023-03-20T20:06:35.041Z,1.49
2023-03-20T20:09:22.390Z,1.44
2023-03-20T20:12:10.329Z,1.39
2023-03-20T20:14:57.895Z,1.32
2023-03-20T20:17:44.780Z,1.30
2023-03-20T20:20:34.567Z,1.25
2023-03-20T20:23:28.085Z,1.19
2023-03-20T20:26:18.491Z,1.13
2023-03-20T20:29:05.449Z,1.10
2023-03-20T20:31:52.507Z,0.99
2023-03-20T20:35:30.838Z,1.01
2023-03-20T20:40:53.438Z,0.92
2023-03-20T20:44:14.065Z,0.81
2023-03-20T20:46:47.293Z,0.81
2023-03-20T20:49:34.276Z,0.78
2023-03-20T20:52:21.214Z,0.49
2023-03-20T20:55:22.151Z,0.69
2023-03-20T20:58:14.781Z,0.65
2023-03-20T21:01:01.734Z,0.60
2023-03-20T21:03:48.577Z,0.57
2023-03-20T21:07:03.821Z,0.53
2023-03-20T21:09:42.380Z,0.50
2023-03-20T21:12:40.236Z,0.47
2023-03-20T21:15:33.141Z,0.15
2023-03-20T21:18:20.065Z,0.40
2023-03-20T21:21:06.855Z,0.37
2023-03-20T21:23:55.350Z,-0.09
2023-03-20T21:26:42.341Z,0.31
2023-03-20T21:29:29.541Z,0.24
2023-03-20T21:32:16.497Z,0.24
2023-03-20T21:35:03.522Z,0.08
2023-03-20T21:38:37.869Z,0.18
2023-03-20T21:40:57.507Z,0.16
2023-03-20T21:43:44.407Z,0.12
2023-03-20T21:47:22.612Z,-0.03
2023-03-20T21:53:17.957Z,-0.08
2023-03-20T21:59:43.253Z,-0.08
2023-03-20T22:02:14.249Z,-0.12
2023-03-20T22:11:57.110Z,-0.22
2023-03-20T22:18:12.352Z,-0.28
2023-03-20T22:21:29.684Z,-0.31
2023-03-20T22:34:05.212Z,-0.49
2023-03-20T22:37:16.381Z,-0.50
2023-03-20T22:45:42.963Z,-0.59
2023-03-20T22:48:34.257Z,-0.61
2023-03-20T22:51:28.677Z,-0.62
2023-03-20T22:54:19.806Z,-0.72
2023-03-20T22:57:06.726Z,-0.71
2023-03-20T22:59:53.871Z,-0.80
2023-03-20T23:02:40.772Z,-0.75
2023-03-20T23:05:29.466Z,-1.00
2023-03-20T23:08:16.518Z,-0.77
2023-03-20T23:11:05.674Z,-0.79
2023-03-20T23:13:52.715Z,-1.02
2023-03-20T23:16:40.450Z,-0.85
2023-03-20T23:19:28.104Z,-0.86
2023-03-20T23:22:16.954Z,-0.91
2023-03-20T23:25:13.325Z,-0.91
2023-03-20T23:28:05.541Z,-0.91
2023-03-20T23:31:07.634Z,-0.93
2023-03-20T23:33:58.540Z,-0.96
2023-03-20T23:36:46.095Z,-1.07
2023-03-20T23:39:34.058Z,-1.02
2023-03-20T23:42:30.401Z,-1.04
2023-03-20T23:45:20.839Z,-1.13
2023-03-20T23:48:08.287Z,-1.09
2023-03-20T23:50:55.353Z,-1.12
2023-03-20T23:53:42.942Z,-1.20
2023-03-20T23:56:32.315Z,-1.15
2023-03-20T23:59:21.903Z,-1.18
